createdAt,value
2023-05-05T00:00:39.996Z,80.2805
2023-05-05T00:01:42.582Z,80.1608
2023-05-05T00:02:45.289Z,79.5273
2023-05-05T00:03:47.955Z,79.9404
2023-05-05T00:04:50.440Z,80.2855
2023-05-05T00:05:53.019Z,79.9755
2023-05-05T00:06:55.620Z,79.8924
2023-05-05T00:07:58.224Z,82.1466
2023-05-05T00:09:00.845Z,83.0668
2023-05-05T00:10:03.435Z,83.1641
2023-05-05T00:11:06.045Z,83.4242
2023-05-05T00:12:08.632Z,83.4985
2023-05-05T00:13:11.387Z,83.7605
2023-05-05T00:14:13.857Z,84.1952
2023-05-05T00:15:16.464Z,84.5144
2023-05-05T00:16:19.040Z,83.7950
2023-05-05T00:17:21.695Z,83.6797
2023-05-05T00:18:24.256Z,82.6654
2023-05-05T00:19:26.881Z,81.4732
2023-05-05T00:20:29.557Z,81.3580
2023-05-05T00:21:32.094Z,81.3476
2023-05-05T00:22:34.679Z,81.0103
2023-05-05T00:23:37.308Z,80.8532
2023-05-05T00:24:39.900Z,80.6885
2023-05-05T00:25:42.531Z,80.6720
2023-05-05T00:26:45.107Z,80.3720
2023-05-05T00:27:47.739Z,80.7856
2023-05-05T00:28:50.341Z,80.7497
2023-05-05T00:29:52.946Z,80.2781
2023-05-05T00:30:55.533Z,80.4611
2023-05-05T00:31:58.179Z,80.4412
2023-05-05T00:33:00.778Z,80.1789
2023-05-05T00:34:03.369Z,79.9077
2023-05-05T00:35:05.942Z,80.0775
2023-05-05T00:36:08.580Z,80.3831
2023-05-05T00:37:11.167Z,79.7643
2023-05-05T00:38:13.791Z,80.1406
2023-05-05T00:39:16.359Z,79.5820
2023-05-05T00:40:18.989Z,80.1296
2023-05-05T00:41:21.619Z,79.6291
2023-05-05T00:42:24.189Z,79.5742
2023-05-05T00:43:26.771Z,79.5504
2023-05-05T00:44:29.406Z,80.2033
2023-05-05T00:45:31.984Z,79.5649
2023-05-05T00:46:34.616Z,79.0659
2023-05-05T00:47:37.240Z,79.6573
2023-05-05T00:48:39.803Z,79.0187
2023-05-05T00:49:42.377Z,80.0400
2023-05-05T00:50:45.027Z,80.4812
2023-05-05T00:51:47.592Z,80.4121
2023-05-05T00:52:50.219Z,81.4595
2023-05-05T00:53:52.800Z,81.1672
2023-05-05T00:54:55.437Z,81.1675
2023-05-05T00:55:58.001Z,81.0104
2023-05-05T00:57:00.632Z,81.7732
2023-05-05T00:58:03.219Z,81.8026
2023-05-05T00:59:05.843Z,81.1269
2023-05-05T01:00:08.790Z,80.5891
2023-05-05T01:01:11.168Z,81.4387
2023-05-05T01:02:13.618Z,81.4004
2023-05-05T01:03:16.303Z,80.9255
2023-05-05T01:04:18.825Z,81.5406
2023-05-05T01:05:21.438Z,81.1883
2023-05-05T01:06:24.026Z,80.6794
2023-05-05T01:07:26.661Z,80.9212
2023-05-05T01:08:29.243Z,80.3994
2023-05-05T01:09:31.859Z,80.0590
2023-05-05T01:10:34.429Z,80.5119
2023-05-05T01:11:37.047Z,82.0010
2023-05-05T01:12:39.650Z,81.6935
2023-05-05T01:13:42.254Z,81.9508
2023-05-05T01:14:44.826Z,82.0191
2023-05-05T01:15:47.470Z,81.3176
2023-05-05T01:16:50.035Z,81.3959
2023-05-05T01:17:52.751Z,82.1601
2023-05-05T01:18:55.263Z,82.1797
2023-05-05T01:19:57.865Z,82.2756
2023-05-05T01:21:00.481Z,81.9481
2023-05-05T01:22:03.067Z,81.4156
2023-05-05T01:23:05.659Z,81.3022
2023-05-05T01:24:08.313Z,80.8368
2023-05-05T01:25:10.867Z,80.9285
2023-05-05T01:26:14.276Z,81.8531
2023-05-05T01:27:16.073Z,82.4066
2023-05-05T01:28:18.693Z,82.5713
2023-05-05T01:29:21.312Z,81.7882
2023-05-05T01:30:23.907Z,81.6237
2023-05-05T01:31:26.507Z,81.2075
2023-05-05T01:32:29.213Z,80.8178
2023-05-05T01:33:31.678Z,81.5281
2023-05-05T01:34:34.320Z,82.0097
2023-05-05T01:35:36.880Z,81.7044
2023-05-05T01:36:39.519Z,81.7664
2023-05-05T01:37:42.095Z,82.1351
2023-05-05T01:38:44.717Z,81.4102
2023-05-05T01:39:47.305Z,80.7057
2023-05-05T01:40:49.950Z,81.2806
2023-05-05T01:41:52.508Z,81.4406
2023-05-05T01:42:55.130Z,80.3821
2023-05-05T01:45:31.978Z,80.9360
2023-05-05T01:46:34.520Z,80.4802
2023-05-05T01:47:37.168Z,80.9813
2023-05-05T01:48:41.761Z,80.1897
2023-05-05T01:49:42.351Z,81.1508
2023-05-05T01:50:44.932Z,82.5532
2023-05-05T01:51:47.850Z,82.4782
2023-05-05T01:52:50.169Z,81.9543
2023-05-05T01:53:52.767Z,81.0336
2023-05-05T01:54:55.358Z,80.6302
2023-05-05T01:55:57.993Z,80.5656
2023-05-05T01:57:00.568Z,80.4584
2023-05-05T01:58:03.289Z,80.8403
2023-05-05T01:59:05.752Z,80.5128
2023-05-05T02:00:08.657Z,80.8065
2023-05-05T02:01:11.091Z,81.9014
2023-05-05T02:02:13.617Z,82.9949
2023-05-05T02:03:16.345Z,83.6780
2023-05-05T02:04:18.801Z,84.1978
2023-05-05T02:05:21.385Z,83.9101
2023-05-05T02:06:24.011Z,84.2283
2023-05-05T02:07:26.594Z,83.7713
2023-05-05T02:08:29.223Z,83.5828
2023-05-05T02:09:31.798Z,83.2369
2023-05-05T02:10:34.437Z,83.4147
2023-05-05T02:11:37.016Z,83.9130
2023-05-05T02:12:39.696Z,83.6873
2023-05-05T02:13:42.277Z,82.9109
2023-05-05T02:14:44.867Z,82.3180
2023-05-05T02:15:47.433Z,81.8455
2023-05-05T02:16:50.052Z,81.4831
2023-05-05T02:17:52.676Z,82.2723
2023-05-05T02:18:55.256Z,82.8629
2023-05-05T02:19:57.833Z,82.9739
2023-05-05T02:21:00.561Z,82.2283
2023-05-05T02:23:42.086Z,82.8254
2023-05-05T02:24:44.674Z,83.1626
2023-05-05T02:25:47.302Z,82.3024
2023-05-05T02:26:49.891Z,82.2803
2023-05-05T02:27:52.524Z,82.0634
2023-05-05T02:28:55.104Z,81.5317
2023-05-05T02:29:57.859Z,81.9560
2023-05-05T02:31:00.350Z,81.2988
2023-05-05T02:32:02.944Z,81.1602
2023-05-05T02:33:05.602Z,81.4272
2023-05-05T02:34:08.132Z,80.8363
2023-05-05T02:35:10.709Z,80.1358
2023-05-05T02:36:13.550Z,81.6420
2023-05-05T02:37:15.920Z,83.2543
2023-05-05T02:38:18.542Z,83.6703
2023-05-05T02:39:21.130Z,83.3674
2023-05-05T02:40:23.751Z,83.2154
2023-05-05T02:41:26.324Z,82.3129
2023-05-05T02:42:28.959Z,81.2107
2023-05-05T02:43:31.565Z,80.9398
2023-05-05T02:44:34.178Z,81.4912
2023-05-05T02:45:36.749Z,81.3964
2023-05-05T02:46:39.403Z,82.1230
2023-05-05T02:47:41.986Z,82.0890
2023-05-05T02:50:04.355Z,82.4891
2023-05-05T02:51:06.924Z,82.6974
2023-05-05T02:52:09.563Z,82.2688
2023-05-05T02:53:12.242Z,82.4316
2023-05-05T02:54:14.796Z,82.3686
2023-05-05T02:57:10.864Z,81.8282
2023-05-05T02:58:13.437Z,82.0359
2023-05-05T02:59:16.428Z,80.9848
2023-05-05T03:00:18.651Z,80.9157
2023-05-05T03:01:21.317Z,80.5212
2023-05-05T03:02:23.905Z,80.1931
2023-05-05T03:03:26.510Z,79.9607
2023-05-05T03:04:29.095Z,79.7370
2023-05-05T03:05:31.674Z,79.8932
2023-05-05T03:06:34.308Z,79.1700
2023-05-05T03:07:36.888Z,78.8188
2023-05-05T03:08:39.500Z,78.4891
2023-05-05T03:09:42.086Z,78.0758
2023-05-05T03:10:44.718Z,78.2773
2023-05-05T03:11:47.298Z,79.5164
2023-05-05T03:12:49.933Z,78.6300
2023-05-05T03:13:52.495Z,77.6972
2023-05-05T03:14:55.161Z,78.3888
2023-05-05T03:15:57.734Z,77.7471
2023-05-05T03:17:00.319Z,77.4664
2023-05-05T03:18:02.987Z,77.1988
2023-05-05T03:19:05.520Z,77.5222
2023-05-05T03:20:08.353Z,77.8788
2023-05-05T03:21:10.706Z,77.6549
2023-05-05T03:24:06.764Z,77.5492
2023-05-05T03:25:09.396Z,77.9566
2023-05-05T03:26:12.000Z,77.9218
2023-05-05T03:27:14.606Z,77.8111
2023-05-05T03:28:17.192Z,77.6399
2023-05-05T03:29:19.830Z,78.3274
2023-05-05T03:30:22.404Z,76.8849
2023-05-05T03:31:25.047Z,76.9138
2023-05-05T03:32:27.622Z,76.7728
2023-05-05T03:33:30.235Z,77.2027
2023-05-05T03:34:32.819Z,77.6361
2023-05-05T03:35:35.442Z,77.6039
2023-05-05T03:36:38.037Z,77.5543
2023-05-05T03:37:40.658Z,77.1407
2023-05-05T03:38:43.220Z,77.0840
2023-05-05T03:39:45.853Z,77.1394
2023-05-05T03:40:48.430Z,77.3683
2023-05-05T03:41:51.061Z,77.4968
2023-05-05T03:42:53.680Z,77.9561
2023-05-05T03:43:56.280Z,77.9332
2023-05-05T03:44:58.854Z,78.2895
2023-05-05T03:46:01.510Z,77.5661
2023-05-05T03:47:04.049Z,77.1277
2023-05-05T03:48:06.738Z,77.3095
2023-05-05T03:49:09.269Z,77.1881
2023-05-05T03:50:11.896Z,76.9855
2023-05-05T03:51:14.467Z,76.8285
2023-05-05T03:52:17.087Z,77.1628
2023-05-05T03:53:19.667Z,76.9821
2023-05-05T03:54:22.309Z,76.7287
2023-05-05T03:55:24.893Z,77.1648
2023-05-05T03:56:27.507Z,77.2446
2023-05-05T03:57:30.077Z,77.0530
2023-05-05T03:58:32.725Z,76.7159
2023-05-05T04:00:45.446Z,76.4864
2023-05-05T04:01:48.017Z,75.9345
2023-05-05T04:02:50.730Z,76.1751
2023-05-05T04:03:53.321Z,75.9690
2023-05-05T04:04:55.926Z,76.0916
2023-05-05T04:05:58.450Z,76.7600
2023-05-05T04:07:01.070Z,77.0825
2023-05-05T04:08:03.662Z,77.2648
2023-05-05T04:10:40.467Z,76.0406
2023-05-05T04:11:43.247Z,75.9050
2023-05-05T04:12:45.692Z,75.9856
2023-05-05T04:13:48.322Z,76.7310
2023-05-05T04:14:50.898Z,76.2601
2023-05-05T04:15:53.574Z,76.3824
2023-05-05T04:16:56.111Z,76.6322
2023-05-05T04:17:58.819Z,76.8923
2023-05-05T04:19:01.329Z,76.7235
2023-05-05T04:20:03.946Z,76.8833
2023-05-05T04:21:06.563Z,77.0518
2023-05-05T04:22:09.212Z,77.1970
2023-05-05T04:23:11.736Z,76.8963
2023-05-05T04:24:14.362Z,76.9604
2023-05-05T04:25:16.945Z,76.9489
2023-05-05T04:26:19.578Z,77.3014
2023-05-05T04:27:22.141Z,77.6677
2023-05-05T04:28:24.784Z,77.4563
2023-05-05T04:29:27.365Z,77.5488
2023-05-05T04:30:29.986Z,77.7604
2023-05-05T04:31:32.610Z,77.8847
2023-05-05T04:32:35.287Z,77.5418
2023-05-05T04:33:37.789Z,77.7386
2023-05-05T04:34:40.412Z,78.0912
2023-05-05T04:35:42.985Z,78.9383
2023-05-05T04:36:45.711Z,77.9660
2023-05-05T04:37:48.190Z,77.7781
2023-05-05T04:38:50.864Z,77.3484
2023-05-05T04:39:53.412Z,77.0834
2023-05-05T04:40:56.028Z,77.8467
2023-05-05T04:41:58.602Z,77.9283
2023-05-05T04:43:01.241Z,78.1537
2023-05-05T04:44:03.805Z,77.8737
2023-05-05T04:45:06.833Z,77.5024
2023-05-05T04:46:09.058Z,78.3372
2023-05-05T04:47:13.261Z,77.3947
2023-05-05T04:48:14.549Z,76.7157
2023-05-05T04:49:16.849Z,77.1407
2023-05-05T04:50:19.425Z,76.6785
2023-05-05T04:51:22.054Z,77.4401
2023-05-05T04:54:08.472Z,78.0192
2023-05-05T04:55:11.056Z,76.7352
2023-05-05T04:56:13.673Z,77.8507
2023-05-05T04:57:16.264Z,76.5955
2023-05-05T04:58:18.892Z,76.2688
2023-05-05T04:59:21.493Z,76.6217
2023-05-05T05:00:24.112Z,77.9686
2023-05-05T05:01:26.720Z,77.9999
2023-05-05T05:02:29.361Z,79.1600
2023-05-05T05:03:32.070Z,79.4548
2023-05-05T05:04:34.512Z,79.2481
2023-05-05T05:05:37.207Z,78.7951
2023-05-05T05:06:39.701Z,78.6881
2023-05-05T05:07:42.274Z,77.6273
2023-05-05T05:08:44.892Z,76.9572
2023-05-05T05:09:47.480Z,76.4828
2023-05-05T05:10:50.093Z,77.7637
2023-05-05T05:11:52.711Z,78.9498
2023-05-05T05:12:55.358Z,78.3586
2023-05-05T05:13:57.875Z,78.6718
2023-05-05T05:15:00.517Z,77.9763
2023-05-05T05:16:03.091Z,77.4348
2023-05-05T05:17:05.694Z,77.9252
2023-05-05T05:18:08.325Z,77.1973
2023-05-05T05:19:10.896Z,77.3553
2023-05-05T05:20:13.473Z,77.7671
2023-05-05T05:21:16.358Z,78.7531
2023-05-05T05:22:18.679Z,78.8333
2023-05-05T05:23:21.302Z,79.5635
2023-05-05T05:24:23.864Z,79.2274
2023-05-05T05:25:26.493Z,79.3568
2023-05-05T05:26:29.068Z,79.4732
2023-05-05T05:27:31.717Z,79.3267
2023-05-05T05:28:34.333Z,78.7549
2023-05-05T05:29:36.900Z,79.0088
2023-05-05T05:30:39.490Z,79.0183
2023-05-05T05:31:42.169Z,76.5146
2023-05-05T05:32:44.710Z,76.0800
2023-05-05T05:33:47.297Z,77.7535
2023-05-05T05:34:49.868Z,78.1972
2023-05-05T05:35:52.775Z,78.2011
2023-05-05T05:36:55.091Z,77.6744
2023-05-05T05:37:57.699Z,78.4779
2023-05-05T05:39:00.265Z,77.3970
2023-05-05T05:40:02.897Z,76.4765
2023-05-05T05:41:05.463Z,77.6507
2023-05-05T05:42:08.071Z,75.9674
2023-05-05T05:43:10.655Z,75.6858
2023-05-05T05:44:13.292Z,76.5374
2023-05-05T05:45:16.166Z,76.5408
2023-05-05T05:46:18.486Z,77.0725
2023-05-05T05:47:21.035Z,77.1169
2023-05-05T05:48:23.675Z,76.4680
2023-05-05T05:49:26.248Z,76.0570
2023-05-05T05:50:28.870Z,76.7666
2023-05-05T05:51:31.446Z,76.3552
2023-05-05T05:52:34.055Z,74.9710
2023-05-05T05:53:36.649Z,75.4055
2023-05-05T05:54:39.253Z,76.1894
2023-05-05T05:55:41.880Z,75.8547
2023-05-05T05:56:44.460Z,75.4588
2023-05-05T05:57:47.023Z,76.6625
2023-05-05T05:59:54.890Z,75.2850
2023-05-05T06:00:57.508Z,75.7397
2023-05-05T06:02:00.123Z,76.4758
2023-05-05T06:03:02.813Z,74.2888
2023-05-05T06:04:05.341Z,74.1292
2023-05-05T06:05:07.922Z,74.0768
2023-05-05T06:06:10.479Z,74.0680
2023-05-05T06:07:13.100Z,74.5691
2023-05-05T06:08:15.975Z,73.9033
2023-05-05T06:09:18.322Z,73.9382
2023-05-05T06:10:27.981Z,73.6243
2023-05-05T06:11:23.515Z,74.2518
2023-05-05T06:12:26.088Z,74.2729
2023-05-05T06:13:28.721Z,74.3010
2023-05-05T06:14:31.274Z,75.9384
2023-05-05T06:15:33.916Z,74.8550
2023-05-05T06:16:36.478Z,74.8187
2023-05-05T06:17:39.127Z,75.3854
2023-05-05T06:18:41.704Z,75.0919
2023-05-05T06:19:44.295Z,74.2998
2023-05-05T06:20:46.857Z,74.1819
2023-05-05T06:21:49.479Z,75.4140
2023-05-05T06:22:52.085Z,74.3367
2023-05-05T06:23:54.699Z,74.9060
2023-05-05T06:24:57.250Z,74.0404
2023-05-05T06:25:59.867Z,74.4092
2023-05-05T06:27:02.446Z,73.6684
2023-05-05T06:28:05.128Z,73.6251
2023-05-05T06:29:07.621Z,73.8361
2023-05-05T06:30:10.502Z,73.5453
2023-05-05T06:31:12.877Z,74.1795
2023-05-05T06:32:15.438Z,74.1032
2023-05-05T06:33:18.013Z,74.0867
2023-05-05T06:34:20.628Z,74.1012
2023-05-05T06:35:23.203Z,73.6161
2023-05-05T06:36:25.876Z,72.2131
2023-05-05T06:37:28.372Z,72.2106
2023-05-05T06:38:30.989Z,72.7038
2023-05-05T06:39:33.554Z,72.2043
2023-05-05T06:40:36.175Z,71.0785
2023-05-05T06:41:38.782Z,71.4772
2023-05-05T06:42:41.370Z,70.5824
2023-05-05T06:43:43.950Z,71.0856
2023-05-05T06:44:46.545Z,71.1244
2023-05-05T06:45:49.350Z,69.4203
2023-05-05T06:46:51.773Z,69.2384
2023-05-05T06:47:54.328Z,69.9161
2023-05-05T06:48:56.905Z,69.5251
2023-05-05T06:49:59.474Z,70.6023
2023-05-05T06:51:02.927Z,70.4122
2023-05-05T06:52:04.661Z,69.9726
2023-05-05T06:53:07.293Z,71.7246
2023-05-05T06:54:09.841Z,71.5146
2023-05-05T06:55:12.479Z,70.4279
2023-05-05T06:56:15.017Z,68.8174
2023-05-05T06:57:17.641Z,69.5041
2023-05-05T06:58:20.209Z,69.8169
2023-05-05T06:59:23.109Z,68.6455
2023-05-05T07:00:25.389Z,69.3429
2023-05-05T07:01:28.067Z,69.2660
2023-05-05T07:02:30.574Z,68.0475
2023-05-05T07:03:33.190Z,67.2448
2023-05-05T07:04:35.741Z,68.0154
2023-05-05T07:05:38.365Z,68.0334
2023-05-05T07:06:40.931Z,67.3280
2023-05-05T07:07:43.532Z,67.2396
2023-05-05T07:08:46.100Z,67.8516
2023-05-05T07:09:48.706Z,68.6121
2023-05-05T07:10:51.281Z,69.0019
2023-05-05T07:11:53.887Z,68.4429
2023-05-05T07:12:56.601Z,68.3503
2023-05-05T07:13:59.071Z,68.2098
2023-05-05T07:15:09.304Z,68.6329
2023-05-05T07:16:04.299Z,69.4565
2023-05-05T07:17:06.802Z,67.5875
2023-05-05T07:18:09.914Z,66.8392
2023-05-05T07:19:11.990Z,68.1650
2023-05-05T07:20:14.602Z,67.2125
2023-05-05T07:21:17.175Z,67.8447
2023-05-05T07:22:19.813Z,67.0001
2023-05-05T07:23:22.334Z,66.9750
2023-05-05T07:24:24.952Z,67.5978
2023-05-05T07:25:27.515Z,68.7685
2023-05-05T07:26:30.150Z,68.1192
2023-05-05T07:27:32.703Z,67.6204
2023-05-05T07:28:35.322Z,67.0101
2023-05-05T07:29:37.878Z,66.6092
2023-05-05T07:30:40.498Z,65.7805
2023-05-05T07:31:43.087Z,66.5414
2023-05-05T07:32:45.720Z,66.2096
2023-05-05T07:33:48.213Z,67.4996
2023-05-05T07:34:50.844Z,66.6195
2023-05-05T07:35:53.400Z,65.3896
2023-05-05T07:36:56.003Z,65.2388
2023-05-05T07:37:58.568Z,65.0933
2023-05-05T07:39:01.177Z,64.5513
2023-05-05T07:40:03.746Z,64.0517
2023-05-05T07:41:06.362Z,64.0459
2023-05-05T07:42:08.909Z,64.3712
2023-05-05T07:43:11.518Z,64.8223
2023-05-05T07:44:14.090Z,65.2626
2023-05-05T07:45:17.193Z,64.4342
2023-05-05T07:46:19.402Z,65.0524
2023-05-05T07:47:22.028Z,64.5986
2023-05-05T07:48:24.436Z,64.7281
2023-05-05T07:49:27.033Z,65.4979
2023-05-05T07:50:29.893Z,65.5564
2023-05-05T07:51:33.953Z,64.4123
2023-05-05T07:52:46.630Z,64.2602
2023-05-05T07:53:37.392Z,64.3473
2023-05-05T07:54:39.950Z,63.8690
2023-05-05T07:55:42.553Z,64.8970
2023-05-05T07:56:45.117Z,64.3627
2023-05-05T07:59:41.018Z,65.6982
2023-05-05T08:00:43.632Z,65.3411
2023-05-05T08:01:46.277Z,65.7890
2023-05-05T08:02:48.900Z,65.8163
2023-05-05T08:03:51.469Z,65.9817
2023-05-05T08:04:53.992Z,66.3858
2023-05-05T08:05:56.556Z,66.5655
2023-05-05T08:06:59.167Z,66.8552
2023-05-05T08:09:02.339Z,64.6191
2023-05-05T08:10:04.929Z,64.2306
2023-05-05T08:11:07.515Z,64.5534
2023-05-05T08:12:10.088Z,65.5931
2023-05-05T08:13:12.819Z,63.1963
2023-05-05T08:14:15.284Z,63.5805
2023-05-05T08:15:17.882Z,63.6961
2023-05-05T08:16:20.537Z,65.3361
2023-05-05T08:17:23.205Z,63.4409
2023-05-05T08:18:25.629Z,60.8375
2023-05-05T08:19:29.491Z,61.0925
2023-05-05T08:20:30.820Z,60.4170
2023-05-05T08:21:33.440Z,61.1752
2023-05-05T08:22:35.982Z,60.9381
2023-05-05T08:23:38.600Z,61.3792
2023-05-05T08:24:41.159Z,61.8064
2023-05-05T08:25:43.797Z,59.7885
2023-05-05T08:26:46.365Z,58.9012
2023-05-05T08:27:48.943Z,60.5694
2023-05-05T08:28:51.505Z,59.7266
2023-05-05T08:29:54.119Z,59.4486
2023-05-05T08:30:56.673Z,59.4041
2023-05-05T08:31:59.326Z,59.9102
2023-05-05T08:33:02.094Z,60.3764
2023-05-05T08:34:04.474Z,59.6749
2023-05-05T08:35:07.705Z,61.3656
2023-05-05T08:36:09.642Z,61.3577
2023-05-05T08:37:12.219Z,59.8575
2023-05-05T08:38:14.814Z,58.7180
2023-05-05T08:39:17.583Z,59.1463
2023-05-05T08:40:19.983Z,59.4672
2023-05-05T08:41:22.559Z,60.4309
2023-05-05T08:42:36.374Z,61.9285
2023-05-05T08:43:27.710Z,59.3381
2023-05-05T08:44:30.361Z,59.7593
2023-05-05T08:46:38.068Z,62.2773
2023-05-05T08:47:40.686Z,63.0377
2023-05-05T08:48:43.282Z,61.2845
2023-05-05T08:49:45.812Z,59.4395
2023-05-05T08:50:48.415Z,58.5700
2023-05-05T08:51:50.959Z,59.6066
2023-05-05T08:52:53.622Z,60.9374
2023-05-05T08:53:56.152Z,60.9938
2023-05-05T08:54:58.733Z,63.0546
2023-05-05T08:56:01.299Z,61.4631
2023-05-05T08:57:03.932Z,60.4849
2023-05-05T08:58:06.482Z,60.3943
2023-05-05T08:59:09.092Z,60.5582
2023-05-05T09:00:11.647Z,61.5229
2023-05-05T09:01:14.607Z,61.5726
2023-05-05T09:02:16.910Z,62.7768
2023-05-05T09:03:19.482Z,63.3564
2023-05-05T09:04:22.089Z,62.5307
2023-05-05T09:05:24.620Z,62.8253
2023-05-05T09:06:27.171Z,63.6867
2023-05-05T09:07:29.789Z,61.9012
2023-05-05T09:08:32.360Z,59.5794
2023-05-05T09:09:34.962Z,58.7536
2023-05-05T09:10:37.526Z,60.1302
2023-05-05T09:11:40.123Z,60.4440
2023-05-05T09:12:42.731Z,61.0052
2023-05-05T09:13:45.284Z,61.5595
2023-05-05T09:14:47.854Z,62.6065
2023-05-05T09:15:50.464Z,61.7462
2023-05-05T09:16:53.061Z,61.0965
2023-05-05T09:17:55.673Z,60.2707
2023-05-05T09:18:58.204Z,61.4609
2023-05-05T09:20:00.857Z,63.0371
2023-05-05T09:21:03.381Z,62.8436
2023-05-05T09:22:06.001Z,63.3991
2023-05-05T09:23:08.579Z,59.9756
2023-05-05T09:24:11.176Z,60.9578
2023-05-05T09:25:13.730Z,59.6022
2023-05-05T09:26:16.360Z,58.7697
2023-05-05T09:27:19.473Z,58.5973
2023-05-05T09:28:21.533Z,58.0670
2023-05-05T09:29:24.073Z,56.7328
2023-05-05T09:30:26.687Z,58.7797
2023-05-05T09:31:29.314Z,59.8076
2023-05-05T09:32:31.844Z,59.9864
2023-05-05T09:33:34.409Z,60.8100
2023-05-05T09:34:37.029Z,61.5031
2023-05-05T09:35:39.684Z,63.1335
2023-05-05T09:36:42.264Z,59.7275
2023-05-05T09:37:44.760Z,60.2087
2023-05-05T09:38:47.357Z,61.2211
2023-05-05T09:39:49.926Z,61.8685
2023-05-05T09:40:52.527Z,62.4710
2023-05-05T09:41:55.093Z,63.0168
2023-05-05T09:42:57.698Z,63.4697
2023-05-05T09:44:00.257Z,64.0863
2023-05-05T09:45:02.868Z,63.9915
2023-05-05T09:46:05.459Z,64.4539
2023-05-05T09:47:18.098Z,64.6352
2023-05-05T09:48:10.621Z,63.2968
2023-05-05T09:49:13.219Z,61.1011
2023-05-05T09:50:15.777Z,57.8784
2023-05-05T09:51:18.574Z,59.7633
2023-05-05T09:52:20.949Z,59.6894
2023-05-05T09:53:23.559Z,60.3853
2023-05-05T09:54:26.129Z,62.0456
2023-05-05T09:55:28.720Z,62.4486
2023-05-05T09:56:31.284Z,62.7996
2023-05-05T09:57:33.902Z,62.6010
2023-05-05T09:58:36.568Z,62.9151
2023-05-05T09:59:39.074Z,59.4527
2023-05-05T10:00:41.629Z,59.0846
2023-05-05T10:01:44.267Z,60.5892
2023-05-05T10:02:46.834Z,62.2216
2023-05-05T10:03:49.411Z,62.3024
2023-05-05T10:04:52.075Z,62.2354
2023-05-05T10:05:54.591Z,63.0303
2023-05-05T10:06:57.266Z,59.9122
2023-05-05T10:07:59.746Z,61.0374
2023-05-05T10:09:02.311Z,61.4966
2023-05-05T10:10:05.133Z,60.0588
2023-05-05T10:11:07.493Z,58.9733
2023-05-05T10:12:10.102Z,56.9503
2023-05-05T10:13:12.755Z,57.9363
2023-05-05T10:14:15.255Z,58.0225
2023-05-05T10:15:17.823Z,58.8893
2023-05-05T10:16:20.494Z,59.0245
2023-05-05T10:17:22.984Z,61.2082
2023-05-05T10:18:25.730Z,60.5469
2023-05-05T10:19:28.137Z,58.5789
2023-05-05T10:20:30.750Z,56.5867
2023-05-05T10:21:33.304Z,59.1924
2023-05-05T10:22:35.978Z,58.9098
2023-05-05T10:23:38.468Z,59.1248
2023-05-05T10:24:41.074Z,62.2353
2023-05-05T10:26:39.582Z,61.1897
2023-05-05T10:27:42.560Z,61.2258
2023-05-05T10:28:44.567Z,62.2884
2023-05-05T10:29:47.121Z,61.6325
2023-05-05T10:30:49.727Z,61.0997
2023-05-05T10:31:52.317Z,57.0746
2023-05-05T10:33:07.961Z,57.0108
2023-05-05T10:33:57.480Z,55.4832
2023-05-05T10:35:00.058Z,53.9397
2023-05-05T10:36:03.681Z,54.7907
2023-05-05T10:37:07.281Z,53.6700
2023-05-05T10:38:07.849Z,53.6865
2023-05-05T10:39:12.445Z,54.1529
2023-05-05T10:40:12.945Z,57.0374
2023-05-05T10:41:15.557Z,57.9375
2023-05-05T10:42:18.693Z,57.6748
2023-05-05T10:43:20.710Z,57.7738
2023-05-05T10:44:23.261Z,58.1782
2023-05-05T10:45:27.996Z,57.0962
2023-05-05T10:46:28.475Z,59.6496
2023-05-05T10:47:33.084Z,61.0283
2023-05-05T10:48:33.626Z,61.7598
2023-05-05T10:49:36.204Z,62.7974
2023-05-05T10:50:38.771Z,64.6865
2023-05-05T10:51:41.462Z,62.3139
2023-05-05T10:52:43.959Z,62.3035
2023-05-05T10:53:46.667Z,60.1601
2023-05-05T10:54:49.117Z,56.3019
2023-05-05T10:55:51.719Z,57.3798
2023-05-05T10:56:54.289Z,57.4794
2023-05-05T10:57:56.894Z,56.7511
2023-05-05T10:59:00.773Z,59.6561
2023-05-05T11:00:02.070Z,60.3835
2023-05-05T11:01:04.669Z,54.8184
2023-05-05T11:02:07.238Z,55.8589
2023-05-05T11:03:09.818Z,55.7240
2023-05-05T11:04:12.416Z,53.3428
2023-05-05T11:05:15.007Z,53.1016
2023-05-05T11:06:17.545Z,54.3603
2023-05-05T11:07:20.299Z,56.2534
2023-05-05T11:08:22.721Z,58.2172
2023-05-05T11:09:25.398Z,59.8006
2023-05-05T11:10:27.880Z,60.9593
2023-05-05T11:11:30.444Z,61.4601
2023-05-05T11:12:33.109Z,60.1647
2023-05-05T11:13:35.619Z,62.0580
2023-05-05T11:14:38.221Z,62.5553
2023-05-05T11:15:40.792Z,62.4101
2023-05-05T11:16:43.438Z,63.5951
2023-05-05T11:17:46.030Z,63.5333
2023-05-05T11:18:48.577Z,64.7909
2023-05-05T11:19:51.140Z,64.9804
2023-05-05T11:20:53.741Z,62.3767
2023-05-05T11:21:56.303Z,61.0862
2023-05-05T11:22:58.922Z,60.6456
2023-05-05T11:24:01.476Z,61.1148
2023-05-05T11:25:04.191Z,62.1937
2023-05-05T11:26:06.643Z,60.7552
2023-05-05T11:27:09.245Z,58.8225
2023-05-05T11:28:11.842Z,59.8702
2023-05-05T11:29:14.831Z,60.1623
2023-05-05T11:30:16.960Z,59.4146
2023-05-05T11:31:19.946Z,57.3021
2023-05-05T11:32:22.129Z,58.2369
2023-05-05T11:33:24.746Z,58.4586
2023-05-05T11:34:27.305Z,58.1638
2023-05-05T11:35:29.901Z,57.7434
2023-05-05T11:36:32.460Z,57.6642
2023-05-05T11:37:35.061Z,55.7791
2023-05-05T11:38:37.623Z,55.4354
2023-05-05T11:39:40.222Z,55.8985
2023-05-05T11:40:42.853Z,55.7063
2023-05-05T11:41:45.385Z,56.3127
2023-05-05T11:42:47.935Z,55.4177
2023-05-05T11:43:50.542Z,56.4719
2023-05-05T11:44:53.105Z,57.6681
2023-05-05T11:45:55.754Z,56.5168
2023-05-05T11:47:01.068Z,54.4609
2023-05-05T11:48:00.911Z,56.9662
2023-05-05T11:49:03.432Z,57.2604
2023-05-05T11:50:06.170Z,57.5219
2023-05-05T11:51:08.577Z,58.2917
2023-05-05T11:52:11.181Z,56.3808
2023-05-05T11:53:13.723Z,55.2809
2023-05-05T11:54:16.333Z,51.5888
2023-05-05T11:55:18.892Z,51.6336
2023-05-05T11:56:21.559Z,51.6899
2023-05-05T11:57:24.044Z,54.3538
2023-05-05T11:58:26.650Z,52.7804
2023-05-05T11:59:29.475Z,53.3730
2023-05-05T12:00:31.815Z,52.0878
2023-05-05T12:01:34.377Z,52.0748
2023-05-05T12:02:37.034Z,52.9810
2023-05-05T12:03:39.609Z,54.5423
2023-05-05T12:04:42.171Z,55.2591
2023-05-05T12:05:44.671Z,54.1581
2023-05-05T12:06:47.281Z,54.6625
2023-05-05T12:07:49.831Z,54.8946
2023-05-05T12:08:52.446Z,53.1026
2023-05-05T12:09:55.005Z,52.8270
2023-05-05T12:10:57.592Z,55.2102
2023-05-05T12:12:00.218Z,56.2544
2023-05-05T12:13:02.837Z,57.2780
2023-05-05T12:14:05.306Z,56.4813
2023-05-05T12:15:07.934Z,55.2085
2023-05-05T12:16:10.503Z,54.7813
2023-05-05T12:17:13.061Z,57.0039
2023-05-05T12:18:15.616Z,56.9447
2023-05-05T12:19:18.228Z,56.5491
2023-05-05T12:20:20.827Z,56.2144
2023-05-05T12:21:23.383Z,54.8185
2023-05-05T12:22:25.950Z,55.9074
2023-05-05T12:23:28.540Z,56.9635
2023-05-05T12:24:31.094Z,55.8828
2023-05-05T12:25:33.709Z,54.3492
2023-05-05T12:26:36.248Z,54.4815
2023-05-05T12:27:39.021Z,54.4425
2023-05-05T12:28:41.411Z,53.8655
2023-05-05T12:29:44.012Z,54.3893
2023-05-05T12:30:46.615Z,53.7290
2023-05-05T12:31:49.186Z,53.3522
2023-05-05T12:32:51.753Z,54.3043
2023-05-05T12:33:54.331Z,52.2725
2023-05-05T12:34:56.916Z,52.2025
2023-05-05T12:35:59.494Z,53.1091
2023-05-05T12:37:02.035Z,55.5859
2023-05-05T12:38:04.646Z,56.0315
2023-05-05T12:39:07.205Z,54.8847
2023-05-05T12:40:10.053Z,54.5200
2023-05-05T12:41:12.354Z,53.6345
2023-05-05T12:42:14.956Z,54.5131
2023-05-05T12:43:17.510Z,54.0962
2023-05-05T12:44:20.112Z,53.9229
2023-05-05T12:45:22.716Z,52.8833
2023-05-05T12:46:25.374Z,53.5378
2023-05-05T12:47:27.818Z,53.1529
2023-05-05T12:48:30.453Z,54.2456
2023-05-05T12:49:32.965Z,52.0695
2023-05-05T12:50:35.583Z,51.1135
2023-05-05T12:51:38.133Z,51.3177
2023-05-05T12:52:40.740Z,52.5005
2023-05-05T12:53:43.301Z,52.8851
2023-05-05T12:54:45.895Z,51.8357
2023-05-05T12:55:48.443Z,51.2033